sensor_id;sensor_type;location;lat;lon;timestamp;P1;durP1;ratioP1;P2;durP2;ratioP2
11500;SDS011;5807;51.606;7.624;2022-08-11T00:02:22;3.00;;;2.50;;
11500;SDS011;5807;51.606;7.624;2022-08-11T00:05:04;2.17;;;1.90;;
11500;SDS011;5807;51.606;7.624;2022-08-11T00:07:40;2.30;;;2.10;;
11500;SDS011;5807;51.606;7.624;2022-08-11T00:10:09;2.60;;;2.30;;
11500;SDS011;5807;51.606;7.624;2022-08-11T00:12:39;3.87;;;2.03;;
11500;SDS011;5807;51.606;7.624;2022-08-11T00:15:10;2.50;;;2.10;;
11500;SDS011;5807;51.606;7.624;2022-08-11T00:17:37;5.63;;;2.43;;
11500;SDS011;5807;51.606;7.624;2022-08-11T00:20:06;2.93;;;2.07;;
11500;SDS011;5807;51.606;7.624;2022-08-11T00:22:36;2.80;;;2.50;;
11500;SDS011;5807;51.606;7.624;2022-08-11T00:25:08;2.70;;;2.20;;
11500;SDS011;5807;51.606;7.624;2022-08-11T00:27:37;2.33;;;2.10;;
11500;SDS011;5807;51.606;7.624;2022-08-11T00:30:05;3.17;;;2.60;;
11500;SDS011;5807;51.606;7.624;2022-08-11T00:32:35;4.67;;;2.50;;
11500;SDS011;5807;51.606;7.624;2022-08-11T00:35:04;2.13;;;2.03;;
11500;SDS011;5807;51.606;7.624;2022-08-11T00:37:33;2.43;;;1.97;;
11500;SDS011;5807;51.606;7.624;2022-08-11T00:40:03;2.53;;;2.13;;
11500;SDS011;5807;51.606;7.624;2022-08-11T00:42:42;2.50;;;2.30;;
11500;SDS011;5807;51.606;7.624;2022-08-11T00:45:19;2.87;;;2.23;;
11500;SDS011;5807;51.606;7.624;2022-08-11T00:47:55;3.67;;;2.20;;
11500;SDS011;5807;51.606;7.624;2022-08-11T00:50:34;2.60;;;2.30;;
11500;SDS011;5807;51.606;7.624;2022-08-11T00:53:24;2.40;;;2.30;;
11500;SDS011;5807;51.606;7.624;2022-08-11T01:01:47;5.07;;;2.50;;
11500;SDS011;5807;51.606;7.624;2022-08-11T01:04:37;2.60;;;2.40;;
11500;SDS011;5807;51.606;7.624;2022-08-11T01:07:39;2.83;;;2.63;;
11500;SDS011;5807;51.606;7.624;2022-08-11T01:10:31;3.40;;;2.23;;
11500;SDS011;5807;51.606;7.624;2022-08-11T01:13:29;2.77;;;2.17;;
11500;SDS011;5807;51.606;7.624;2022-08-11T01:19:48;3.30;;;2.10;;
11500;SDS011;5807;51.606;7.624;2022-08-11T01:22:51;2.43;;;2.23;;
11500;SDS011;5807;51.606;7.624;2022-08-11T01:25:44;2.57;;;1.97;;
11500;SDS011;5807;51.606;7.624;2022-08-11T01:40:56;3.30;;;2.03;;
11500;SDS011;5807;51.606;7.624;2022-08-11T01:43:48;2.90;;;2.30;;
11500;SDS011;5807;51.606;7.624;2022-08-11T01:46:49;5.53;;;2.43;;
11500;SDS011;5807;51.606;7.624;2022-08-11T01:49:22;2.80;;;2.60;;
11500;SDS011;5807;51.606;7.624;2022-08-11T01:52:05;3.53;;;2.40;;
11500;SDS011;5807;51.606;7.624;2022-08-11T01:54:41;3.57;;;2.20;;
11500;SDS011;5807;51.606;7.624;2022-08-11T01:57:18;10.07;;;3.03;;
11500;SDS011;5807;51.606;7.624;2022-08-11T01:59:53;2.83;;;2.60;;
11500;SDS011;5807;51.606;7.624;2022-08-11T02:05:35;4.00;;;2.90;;
11500;SDS011;5807;51.606;7.624;2022-08-11T02:08:30;2.93;;;2.73;;
11500;SDS011;5807;51.606;7.624;2022-08-11T02:11:08;3.90;;;2.73;;
11500;SDS011;5807;51.606;7.624;2022-08-11T02:14:01;3.10;;;2.63;;
11500;SDS011;5807;51.606;7.624;2022-08-11T02:16:47;3.43;;;3.03;;
11500;SDS011;5807;51.606;7.624;2022-08-11T02:19:22;3.80;;;2.70;;
11500;SDS011;5807;51.606;7.624;2022-08-11T02:22:18;2.80;;;2.60;;
11500;SDS011;5807;51.606;7.624;2022-08-11T02:25:19;4.70;;;2.53;;
11500;SDS011;5807;51.606;7.624;2022-08-11T02:27:54;3.23;;;2.73;;
11500;SDS011;5807;51.606;7.624;2022-08-11T02:30:30;3.40;;;2.50;;
11500;SDS011;5807;51.606;7.624;2022-08-11T02:33:08;2.63;;;2.50;;
11500;SDS011;5807;51.606;7.624;2022-08-11T02:35:54;2.93;;;2.73;;
11500;SDS011;5807;51.606;7.624;2022-08-11T02:38:27;3.20;;;2.90;;
11500;SDS011;5807;51.606;7.624;2022-08-11T02:41:04;2.83;;;2.47;;
11500;SDS011;5807;51.606;7.624;2022-08-11T02:43:51;3.70;;;3.00;;
11500;SDS011;5807;51.606;7.624;2022-08-11T02:46:35;3.30;;;3.00;;
11500;SDS011;5807;51.606;7.624;2022-08-11T02:49:14;3.80;;;3.00;;
11500;SDS011;5807;51.606;7.624;2022-08-11T02:52:23;3.40;;;3.00;;
11500;SDS011;5807;51.606;7.624;2022-08-11T02:57:48;3.53;;;2.90;;
11500;SDS011;5807;51.606;7.624;2022-08-11T03:00:19;3.67;;;3.20;;
11500;SDS011;5807;51.606;7.624;2022-08-11T03:02:50;3.90;;;3.60;;
11500;SDS011;5807;51.606;7.624;2022-08-11T03:05:51;3.27;;;3.07;;
11500;SDS011;5807;51.606;7.624;2022-08-11T03:08:35;3.93;;;3.53;;
11500;SDS011;5807;51.606;7.624;2022-08-11T03:11:16;4.87;;;2.63;;
11500;SDS011;5807;51.606;7.624;2022-08-11T03:14:11;3.30;;;3.00;;
11500;SDS011;5807;51.606;7.624;2022-08-11T03:17:03;3.70;;;3.40;;
11500;SDS011;5807;51.606;7.624;2022-08-11T03:19:43;5.57;;;3.80;;
11500;SDS011;5807;51.606;7.624;2022-08-11T03:22:18;5.27;;;3.50;;
11500;SDS011;5807;51.606;7.624;2022-08-11T03:24:52;7.63;;;7.07;;
11500;SDS011;5807;51.606;7.624;2022-08-11T03:30:20;4.53;;;2.90;;
11500;SDS011;5807;51.606;7.624;2022-08-11T03:36:09;3.63;;;3.33;;
11500;SDS011;5807;51.606;7.624;2022-08-11T03:38:53;3.40;;;3.10;;
11500;SDS011;5807;51.606;7.624;2022-08-11T03:41:28;3.47;;;3.17;;
11500;SDS011;5807;51.606;7.624;2022-08-11T03:44:11;3.77;;;3.40;;
11500;SDS011;5807;51.606;7.624;2022-08-11T03:46:58;3.40;;;3.10;;
11500;SDS011;5807;51.606;7.624;2022-08-11T03:49:35;5.00;;;2.97;;
11500;SDS011;5807;51.606;7.624;2022-08-11T03:52:12;5.63;;;3.37;;
11500;SDS011;5807;51.606;7.624;2022-08-11T03:55:03;4.27;;;3.50;;
11500;SDS011;5807;51.606;7.624;2022-08-11T04:04:08;8.07;;;3.77;;
11500;SDS011;5807;51.606;7.624;2022-08-11T04:07:26;3.77;;;3.47;;
11500;SDS011;5807;51.606;7.624;2022-08-11T04:16:47;5.50;;;3.33;;
11500;SDS011;5807;51.606;7.624;2022-08-11T04:19:42;6.40;;;3.57;;
11500;SDS011;5807;51.606;7.624;2022-08-11T04:31:35;4.07;;;3.50;;
11500;SDS011;5807;51.606;7.624;2022-08-11T04:34:04;5.60;;;4.20;;
11500;SDS011;5807;51.606;7.624;2022-08-11T04:37:01;4.60;;;3.67;;
11500;SDS011;5807;51.606;7.624;2022-08-11T04:40:02;4.40;;;3.77;;
11500;SDS011;5807;51.606;7.624;2022-08-11T04:43:04;5.50;;;3.23;;
11500;SDS011;5807;51.606;7.624;2022-08-11T04:45:55;4.20;;;3.53;;
11500;SDS011;5807;51.606;7.624;2022-08-11T04:48:50;4.40;;;3.63;;
11500;SDS011;5807;51.606;7.624;2022-08-11T04:55:44;4.10;;;3.80;;
11500;SDS011;5807;51.606;7.624;2022-08-11T05:05:22;4.77;;;3.63;;
11500;SDS011;5807;51.606;7.624;2022-08-11T05:11:10;3.97;;;3.57;;
11500;SDS011;5807;51.606;7.624;2022-08-11T05:14:03;3.67;;;3.47;;
11500;SDS011;5807;51.606;7.624;2022-08-11T05:17:15;5.80;;;4.00;;
11500;SDS011;5807;51.606;7.624;2022-08-11T05:20:08;7.13;;;3.70;;
11500;SDS011;5807;51.606;7.624;2022-08-11T05:22:53;7.23;;;4.00;;
11500;SDS011;5807;51.606;7.624;2022-08-11T05:25:41;4.23;;;3.60;;
11500;SDS011;5807;51.606;7.624;2022-08-11T05:28:31;4.40;;;3.70;;
11500;SDS011;5807;51.606;7.624;2022-08-11T05:31:17;3.87;;;3.50;;
11500;SDS011;5807;51.606;7.624;2022-08-11T05:34:07;4.67;;;3.73;;
11500;SDS011;5807;51.606;7.624;2022-08-11T05:36:54;7.90;;;3.47;;
11500;SDS011;5807;51.606;7.624;2022-08-11T05:39:28;3.43;;;3.13;;
11500;SDS011;5807;51.606;7.624;2022-08-11T05:42:15;3.80;;;3.17;;
11500;SDS011;5807;51.606;7.624;2022-08-11T05:45:03;3.53;;;3.23;;
11500;SDS011;5807;51.606;7.624;2022-08-11T05:47:53;3.57;;;3.27;;
11500;SDS011;5807;51.606;7.624;2022-08-11T05:50:38;3.70;;;3.37;;
11500;SDS011;5807;51.606;7.624;2022-08-11T05:53:24;2.40;;;2.00;;
11500;SDS011;5807;51.606;7.624;2022-08-11T05:56:09;5.27;;;2.87;;
11500;SDS011;5807;51.606;7.624;2022-08-11T05:58:44;5.57;;;2.83;;
11500;SDS011;5807;51.606;7.624;2022-08-11T06:01:23;3.27;;;3.07;;
11500;SDS011;5807;51.606;7.624;2022-08-11T06:03:52;2.70;;;2.50;;
11500;SDS011;5807;51.606;7.624;2022-08-11T06:06:48;4.27;;;2.67;;
11500;SDS011;5807;51.606;7.624;2022-08-11T06:09:28;5.70;;;2.63;;
11500;SDS011;5807;51.606;7.624;2022-08-11T06:11:58;2.53;;;2.43;;
11500;SDS011;5807;51.606;7.624;2022-08-11T06:14:27;2.87;;;2.53;;
11500;SDS011;5807;51.606;7.624;2022-08-11T06:16:57;2.83;;;2.53;;
11500;SDS011;5807;51.606;7.624;2022-08-11T06:19:30;2.90;;;2.63;;
11500;SDS011;5807;51.606;7.624;2022-08-11T06:22:02;4.07;;;2.80;;
11500;SDS011;5807;51.606;7.624;2022-08-11T06:24:30;3.10;;;2.80;;
11500;SDS011;5807;51.606;7.624;2022-08-11T06:26:58;4.83;;;2.60;;
11500;SDS011;5807;51.606;7.624;2022-08-11T06:29:26;3.57;;;2.60;;
11500;SDS011;5807;51.606;7.624;2022-08-11T06:31:54;4.53;;;2.47;;
11500;SDS011;5807;51.606;7.624;2022-08-11T06:34:30;2.70;;;2.33;;
11500;SDS011;5807;51.606;7.624;2022-08-11T06:37:19;3.03;;;2.83;;
11500;SDS011;5807;51.606;7.624;2022-08-11T06:39:53;3.57;;;2.33;;
11500;SDS011;5807;51.606;7.624;2022-08-11T06:42:49;2.60;;;2.50;;
11500;SDS011;5807;51.606;7.624;2022-08-11T06:45:23;3.07;;;2.47;;
11500;SDS011;5807;51.606;7.624;2022-08-11T06:47:54;2.77;;;2.53;;
11500;SDS011;5807;51.606;7.624;2022-08-11T06:50:25;2.57;;;2.37;;
11500;SDS011;5807;51.606;7.624;2022-08-11T06:53:18;3.00;;;2.70;;
11500;SDS011;5807;51.606;7.624;2022-08-11T06:55:47;3.73;;;2.50;;
11500;SDS011;5807;51.606;7.624;2022-08-11T06:58:33;3.70;;;2.70;;
11500;SDS011;5807;51.606;7.624;2022-08-11T07:01:22;3.77;;;3.00;;
11500;SDS011;5807;51.606;7.624;2022-08-11T07:04:05;5.53;;;2.70;;
11500;SDS011;5807;51.606;7.624;2022-08-11T07:10:04;3.83;;;2.60;;
11500;SDS011;5807;51.606;7.624;2022-08-11T07:13:13;3.63;;;2.60;;
11500;SDS011;5807;51.606;7.624;2022-08-11T07:16:02;5.70;;;3.00;;
11500;SDS011;5807;51.606;7.624;2022-08-11T07:18:30;7.63;;;3.57;;
11500;SDS011;5807;51.606;7.624;2022-08-11T07:21:20;5.70;;;2.80;;
11500;SDS011;5807;51.606;7.624;2022-08-11T07:24:16;2.60;;;2.40;;
11500;SDS011;5807;51.606;7.624;2022-08-11T07:27:03;4.20;;;3.30;;
11500;SDS011;5807;51.606;7.624;2022-08-11T07:29:51;3.73;;;3.03;;
11500;SDS011;5807;51.606;7.624;2022-08-11T07:32:23;3.57;;;2.50;;
11500;SDS011;5807;51.606;7.624;2022-08-11T07:34:54;4.00;;;2.73;;
11500;SDS011;5807;51.606;7.624;2022-08-11T07:37:26;9.80;;;3.13;;
11500;SDS011;5807;51.606;7.624;2022-08-11T07:39:57;5.43;;;2.60;;
11500;SDS011;5807;51.606;7.624;2022-08-11T07:42:26;7.07;;;2.87;;
11500;SDS011;5807;51.606;7.624;2022-08-11T07:45:00;3.97;;;3.00;;
11500;SDS011;5807;51.606;7.624;2022-08-11T07:47:47;3.70;;;2.70;;
11500;SDS011;5807;51.606;7.624;2022-08-11T07:50:33;4.37;;;2.83;;
11500;SDS011;5807;51.606;7.624;2022-08-11T07:53:19;3.13;;;2.50;;
11500;SDS011;5807;51.606;7.624;2022-08-11T07:55:49;3.37;;;3.07;;
11500;SDS011;5807;51.606;7.624;2022-08-11T07:58:18;3.47;;;2.57;;
11500;SDS011;5807;51.606;7.624;2022-08-11T08:01:04;5.70;;;2.43;;
11500;SDS011;5807;51.606;7.624;2022-08-11T08:03:49;5.63;;;2.83;;
11500;SDS011;5807;51.606;7.624;2022-08-11T08:06:34;4.60;;;2.53;;
11500;SDS011;5807;51.606;7.624;2022-08-11T08:09:22;3.47;;;2.63;;
11500;SDS011;5807;51.606;7.624;2022-08-11T08:12:08;3.03;;;2.83;;
11500;SDS011;5807;51.606;7.624;2022-08-11T08:14:55;4.50;;;2.70;;
11500;SDS011;5807;51.606;7.624;2022-08-11T08:17:40;3.60;;;2.70;;
11500;SDS011;5807;51.606;7.624;2022-08-11T08:20:21;3.70;;;2.70;;
11500;SDS011;5807;51.606;7.624;2022-08-11T08:22:51;7.00;;;2.67;;
11500;SDS011;5807;51.606;7.624;2022-08-11T08:25:22;3.20;;;2.90;;
11500;SDS011;5807;51.606;7.624;2022-08-11T08:27:51;4.97;;;3.00;;
11500;SDS011;5807;51.606;7.624;2022-08-11T08:30:19;5.13;;;2.93;;
11500;SDS011;5807;51.606;7.624;2022-08-11T08:33:03;3.33;;;2.97;;
11500;SDS011;5807;51.606;7.624;2022-08-11T08:35:30;2.90;;;2.70;;
11500;SDS011;5807;51.606;7.624;2022-08-11T08:37:58;3.87;;;2.73;;
11500;SDS011;5807;51.606;7.624;2022-08-11T08:40:27;3.30;;;3.10;;
11500;SDS011;5807;51.606;7.624;2022-08-11T08:42:55;3.97;;;2.90;;
11500;SDS011;5807;51.606;7.624;2022-08-11T08:45:24;3.93;;;2.60;;
11500;SDS011;5807;51.606;7.624;2022-08-11T08:48:01;3.33;;;2.70;;
11500;SDS011;5807;51.606;7.624;2022-08-11T08:50:31;3.30;;;3.00;;
11500;SDS011;5807;51.606;7.624;2022-08-11T08:53:26;4.70;;;2.90;;
11500;SDS011;5807;51.606;7.624;2022-08-11T08:56:00;2.93;;;2.73;;
11500;SDS011;5807;51.606;7.624;2022-08-11T08:58:28;6.20;;;3.33;;
11500;SDS011;5807;51.606;7.624;2022-08-11T09:00:59;6.67;;;3.00;;
11500;SDS011;5807;51.606;7.624;2022-08-11T09:03:26;6.70;;;2.90;;
11500;SDS011;5807;51.606;7.624;2022-08-11T09:05:54;4.53;;;2.73;;
11500;SDS011;5807;51.606;7.624;2022-08-11T09:08:22;3.27;;;2.97;;
11500;SDS011;5807;51.606;7.624;2022-08-11T09:10:51;3.13;;;2.83;;
11500;SDS011;5807;51.606;7.624;2022-08-11T09:13:36;4.07;;;2.57;;
11500;SDS011;5807;51.606;7.624;2022-08-11T09:16:08;3.20;;;2.65;;
11500;SDS011;5807;51.606;7.624;2022-08-11T09:18:36;5.88;;;2.97;;
11500;SDS011;5807;51.606;7.624;2022-08-11T09:21:05;7.33;;;2.87;;
11500;SDS011;5807;51.606;7.624;2022-08-11T09:23:34;4.63;;;2.80;;
11500;SDS011;5807;51.606;7.624;2022-08-11T09:26:19;3.10;;;2.88;;
11500;SDS011;5807;51.606;7.624;2022-08-11T09:29:07;2.97;;;2.75;;
11500;SDS011;5807;51.606;7.624;2022-08-11T09:31:36;4.35;;;2.70;;
11500;SDS011;5807;51.606;7.624;2022-08-11T09:34:04;3.53;;;3.13;;
11500;SDS011;5807;51.606;7.624;2022-08-11T09:36:33;4.07;;;2.88;;
11500;SDS011;5807;51.606;7.624;2022-08-11T09:39:18;3.17;;;2.97;;
11500;SDS011;5807;51.606;7.624;2022-08-11T09:42:03;4.90;;;3.53;;
11500;SDS011;5807;51.606;7.624;2022-08-11T09:44:32;3.45;;;2.78;;
11500;SDS011;5807;51.606;7.624;2022-08-11T09:47:21;6.38;;;2.88;;
11500;SDS011;5807;51.606;7.624;2022-08-11T09:49:54;2.63;;;2.53;;
11500;SDS011;5807;51.606;7.624;2022-08-11T09:52:24;6.57;;;2.83;;
11500;SDS011;5807;51.606;7.624;2022-08-11T09:54:52;3.97;;;2.72;;
11500;SDS011;5807;51.606;7.624;2022-08-11T09:57:23;2.63;;;2.53;;
11500;SDS011;5807;51.606;7.624;2022-08-11T10:00:11;2.95;;;2.75;;
11500;SDS011;5807;51.606;7.624;2022-08-11T10:02:41;3.92;;;2.97;;
11500;SDS011;5807;51.606;7.624;2022-08-11T10:05:16;5.50;;;3.28;;
11500;SDS011;5807;51.606;7.624;2022-08-11T10:08:18;4.25;;;2.92;;
11500;SDS011;5807;51.606;7.624;2022-08-11T10:11:44;3.03;;;2.72;;
11500;SDS011;5807;51.606;7.624;2022-08-11T10:14:34;3.65;;;2.97;;
11500;SDS011;5807;51.606;7.624;2022-08-11T10:17:43;3.30;;;3.00;;
11500;SDS011;5807;51.606;7.624;2022-08-11T10:23:40;3.20;;;2.95;;
11500;SDS011;5807;51.606;7.624;2022-08-11T10:26:27;4.07;;;2.97;;
11500;SDS011;5807;51.606;7.624;2022-08-11T10:32:51;3.25;;;3.00;;
11500;SDS011;5807;51.606;7.624;2022-08-11T10:38:38;3.63;;;2.75;;
11500;SDS011;5807;51.606;7.624;2022-08-11T10:41:24;3.67;;;3.38;;
11500;SDS011;5807;51.606;7.624;2022-08-11T10:44:18;3.35;;;3.13;;
11500;SDS011;5807;51.606;7.624;2022-08-11T10:46:53;2.92;;;2.78;;
11500;SDS011;5807;51.606;7.624;2022-08-11T10:53:07;4.85;;;2.90;;
11500;SDS011;5807;51.606;7.624;2022-08-11T10:59:23;3.47;;;3.20;;
11500;SDS011;5807;51.606;7.624;2022-08-11T11:05:23;3.40;;;2.90;;
11500;SDS011;5807;51.606;7.624;2022-08-11T11:08:08;3.63;;;2.95;;
11500;SDS011;5807;51.606;7.624;2022-08-11T11:11:12;4.05;;;2.90;;
11500;SDS011;5807;51.606;7.624;2022-08-11T11:17:40;3.45;;;3.15;;
11500;SDS011;5807;51.606;7.624;2022-08-11T11:20:46;3.35;;;3.13;;
11500;SDS011;5807;51.606;7.624;2022-08-11T11:23:22;5.38;;;3.00;;
11500;SDS011;5807;51.606;7.624;2022-08-11T11:26:00;3.05;;;2.85;;
11500;SDS011;5807;51.606;7.624;2022-08-11T11:31:42;5.28;;;2.70;;
11500;SDS011;5807;51.606;7.624;2022-08-11T11:34:20;5.95;;;3.10;;
11500;SDS011;5807;51.606;7.624;2022-08-11T11:37:04;3.10;;;2.90;;
11500;SDS011;5807;51.606;7.624;2022-08-11T11:39:31;4.63;;;2.88;;
11500;SDS011;5807;51.606;7.624;2022-08-11T11:42:05;3.90;;;2.95;;
11500;SDS011;5807;51.606;7.624;2022-08-11T11:44:35;3.80;;;3.50;;
11500;SDS011;5807;51.606;7.624;2022-08-11T11:47:04;2.70;;;2.60;;
11500;SDS011;5807;51.606;7.624;2022-08-11T11:49:31;3.75;;;3.17;;
11500;SDS011;5807;51.606;7.624;2022-08-11T11:52:04;3.30;;;3.10;;
11500;SDS011;5807;51.606;7.624;2022-08-11T11:54:33;3.40;;;3.10;;
11500;SDS011;5807;51.606;7.624;2022-08-11T11:57:02;4.90;;;2.92;;
11500;SDS011;5807;51.606;7.624;2022-08-11T12:00:00;4.35;;;3.05;;
11500;SDS011;5807;51.606;7.624;2022-08-11T12:02:46;3.33;;;3.00;;
11500;SDS011;5807;51.606;7.624;2022-08-11T12:05:15;6.80;;;3.00;;
11500;SDS011;5807;51.606;7.624;2022-08-11T12:07:45;4.20;;;2.95;;
11500;SDS011;5807;51.606;7.624;2022-08-11T12:10:30;3.10;;;2.80;;
11500;SDS011;5807;51.606;7.624;2022-08-11T12:12:58;5.57;;;3.30;;
11500;SDS011;5807;51.606;7.624;2022-08-11T12:15:44;4.43;;;2.72;;
11500;SDS011;5807;51.606;7.624;2022-08-11T12:18:12;5.15;;;2.95;;
11500;SDS011;5807;51.606;7.624;2022-08-11T12:20:40;3.22;;;3.03;;
11500;SDS011;5807;51.606;7.624;2022-08-11T12:23:09;4.28;;;3.15;;
11500;SDS011;5807;51.606;7.624;2022-08-11T12:25:53;3.15;;;2.85;;
11500;SDS011;5807;51.606;7.624;2022-08-11T12:28:38;4.07;;;2.92;;
11500;SDS011;5807;51.606;7.624;2022-08-11T12:31:05;6.45;;;3.30;;
11500;SDS011;5807;51.606;7.624;2022-08-11T12:33:34;2.88;;;2.78;;
11500;SDS011;5807;51.606;7.624;2022-08-11T12:36:01;4.57;;;2.85;;
11500;SDS011;5807;51.606;7.624;2022-08-11T12:38:30;3.25;;;2.90;;
11500;SDS011;5807;51.606;7.624;2022-08-11T12:40:59;3.88;;;3.00;;
11500;SDS011;5807;51.606;7.624;2022-08-11T12:43:49;5.03;;;3.03;;
11500;SDS011;5807;51.606;7.624;2022-08-11T12:46:34;2.92;;;2.72;;
11500;SDS011;5807;51.606;7.624;2022-08-11T12:49:04;3.13;;;2.92;;
11500;SDS011;5807;51.606;7.624;2022-08-11T12:51:53;3.58;;;2.65;;
11500;SDS011;5807;51.606;7.624;2022-08-11T12:54:26;2.55;;;2.45;;
11500;SDS011;5807;51.606;7.624;2022-08-11T12:56:58;2.80;;;2.60;;
11500;SDS011;5807;51.606;7.624;2022-08-11T12:59:45;3.53;;;2.63;;
11500;SDS011;5807;51.606;7.624;2022-08-11T13:02:30;3.00;;;2.70;;
11500;SDS011;5807;51.606;7.624;2022-08-11T13:05:16;10.55;;;2.80;;
11500;SDS011;5807;51.606;7.624;2022-08-11T13:07:44;3.53;;;2.90;;
11500;SDS011;5807;51.606;7.624;2022-08-11T13:10:15;4.28;;;3.05;;
11500;SDS011;5807;51.606;7.624;2022-08-11T13:13:05;5.28;;;3.88;;
11500;SDS011;5807;51.606;7.624;2022-08-11T13:15:33;5.00;;;2.78;;
11500;SDS011;5807;51.606;7.624;2022-08-11T13:18:01;5.05;;;2.80;;
11500;SDS011;5807;51.606;7.624;2022-08-11T13:20:32;5.30;;;2.80;;
11500;SDS011;5807;51.606;7.624;2022-08-11T13:22:59;2.72;;;2.53;;
11500;SDS011;5807;51.606;7.624;2022-08-11T13:25:29;3.03;;;2.78;;
11500;SDS011;5807;51.606;7.624;2022-08-11T13:27:58;2.80;;;2.60;;
11500;SDS011;5807;51.606;7.624;2022-08-11T13:30:27;6.80;;;3.20;;
11500;SDS011;5807;51.606;7.624;2022-08-11T13:33:14;3.10;;;2.80;;
11500;SDS011;5807;51.606;7.624;2022-08-11T13:35:42;2.70;;;2.50;;
11500;SDS011;5807;51.606;7.624;2022-08-11T13:38:13;2.97;;;2.75;;
11500;SDS011;5807;51.606;7.624;2022-08-11T13:40:43;3.17;;;2.88;;
11500;SDS011;5807;51.606;7.624;2022-08-11T13:43:11;5.32;;;2.50;;
11500;SDS011;5807;51.606;7.624;2022-08-11T13:45:39;4.88;;;3.40;;
11500;SDS011;5807;51.606;7.624;2022-08-11T13:48:08;3.22;;;2.92;;
11500;SDS011;5807;51.606;7.624;2022-08-11T13:50:37;2.75;;;2.60;;
11500;SDS011;5807;51.606;7.624;2022-08-11T13:53:23;3.80;;;2.80;;
11500;SDS011;5807;51.606;7.624;2022-08-11T13:55:53;3.72;;;2.88;;
11500;SDS011;5807;51.606;7.624;2022-08-11T13:58:20;3.05;;;2.83;;
11500;SDS011;5807;51.606;7.624;2022-08-11T14:00:49;2.60;;;2.40;;
11500;SDS011;5807;51.606;7.624;2022-08-11T14:03:18;3.03;;;2.85;;
11500;SDS011;5807;51.606;7.624;2022-08-11T14:05:50;3.90;;;2.83;;
11500;SDS011;5807;51.606;7.624;2022-08-11T14:08:23;5.72;;;2.88;;
11500;SDS011;5807;51.606;7.624;2022-08-11T14:11:02;2.80;;;2.58;;
11500;SDS011;5807;51.606;7.624;2022-08-11T14:13:50;3.20;;;2.90;;
11500;SDS011;5807;51.606;7.624;2022-08-11T14:16:19;4.88;;;2.80;;
11500;SDS011;5807;51.606;7.624;2022-08-11T14:18:51;5.63;;;3.10;;
11500;SDS011;5807;51.606;7.624;2022-08-11T14:21:22;5.53;;;3.28;;
11500;SDS011;5807;51.606;7.624;2022-08-11T14:24:08;2.90;;;2.70;;
11500;SDS011;5807;51.606;7.624;2022-08-11T14:26:38;3.33;;;3.13;;
11500;SDS011;5807;51.606;7.624;2022-08-11T14:29:14;3.30;;;2.95;;
11500;SDS011;5807;51.606;7.624;2022-08-11T14:31:43;3.63;;;2.97;;
11500;SDS011;5807;51.606;7.624;2022-08-11T14:34:11;3.63;;;2.97;;
11500;SDS011;5807;51.606;7.624;2022-08-11T14:36:41;3.28;;;3.08;;
11500;SDS011;5807;51.606;7.624;2022-08-11T14:39:20;3.88;;;2.85;;
11500;SDS011;5807;51.606;7.624;2022-08-11T14:41:52;7.22;;;3.17;;
11500;SDS011;5807;51.606;7.624;2022-08-11T14:44:38;5.18;;;3.05;;
11500;SDS011;5807;51.606;7.624;2022-08-11T14:47:26;3.25;;;3.05;;
11500;SDS011;5807;51.606;7.624;2022-08-11T14:49:55;3.88;;;2.95;;
11500;SDS011;5807;51.606;7.624;2022-08-11T14:52:24;2.95;;;2.75;;
11500;SDS011;5807;51.606;7.624;2022-08-11T14:54:52;3.33;;;3.10;;
11500;SDS011;5807;51.606;7.624;2022-08-11T14:57:39;5.68;;;2.95;;
11500;SDS011;5807;51.606;7.624;2022-08-11T15:00:08;5.68;;;3.20;;
11500;SDS011;5807;51.606;7.624;2022-08-11T15:02:37;4.38;;;2.90;;
11500;SDS011;5807;51.606;7.624;2022-08-11T15:05:22;4.72;;;3.45;;
11500;SDS011;5807;51.606;7.624;2022-08-11T15:07:51;2.88;;;2.78;;
11500;SDS011;5807;51.606;7.624;2022-08-11T15:10:20;4.70;;;3.10;;
11500;SDS011;5807;51.606;7.624;2022-08-11T15:12:49;3.05;;;2.85;;
11500;SDS011;5807;51.606;7.624;2022-08-11T15:15:17;4.03;;;3.13;;
11500;SDS011;5807;51.606;7.624;2022-08-11T15:18:04;4.75;;;3.20;;
11500;SDS011;5807;51.606;7.624;2022-08-11T15:20:33;3.80;;;3.50;;
11500;SDS011;5807;51.606;7.624;2022-08-11T15:23:17;5.78;;;3.08;;
11500;SDS011;5807;51.606;7.624;2022-08-11T15:26:03;4.18;;;3.33;;
11500;SDS011;5807;51.606;7.624;2022-08-11T15:28:36;3.35;;;3.15;;
11500;SDS011;5807;51.606;7.624;2022-08-11T15:31:24;4.50;;;4.10;;
11500;SDS011;5807;51.606;7.624;2022-08-11T15:34:11;4.85;;;3.40;;
11500;SDS011;5807;51.606;7.624;2022-08-11T15:37:02;4.15;;;2.90;;
11500;SDS011;5807;51.606;7.624;2022-08-11T15:40:00;6.70;;;3.17;;
11500;SDS011;5807;51.606;7.624;2022-08-11T15:42:50;3.55;;;3.17;;
11500;SDS011;5807;51.606;7.624;2022-08-11T15:45:41;7.57;;;3.42;;
11500;SDS011;5807;51.606;7.624;2022-08-11T15:48:18;3.72;;;2.90;;
11500;SDS011;5807;51.606;7.624;2022-08-11T15:50:53;3.85;;;2.85;;
11500;SDS011;5807;51.606;7.624;2022-08-11T15:53:29;3.47;;;3.17;;
11500;SDS011;5807;51.606;7.624;2022-08-11T15:55:59;3.72;;;3.40;;
11500;SDS011;5807;51.606;7.624;2022-08-11T15:58:31;3.67;;;3.30;;
11500;SDS011;5807;51.606;7.624;2022-08-11T16:01:20;4.90;;;3.42;;
11500;SDS011;5807;51.606;7.624;2022-08-11T16:04:08;3.60;;;3.40;;
11500;SDS011;5807;51.606;7.624;2022-08-11T16:06:44;3.58;;;3.28;;
11500;SDS011;5807;51.606;7.624;2022-08-11T16:09:17;4.53;;;2.97;;
11500;SDS011;5807;51.606;7.624;2022-08-11T16:11:48;3.92;;;3.50;;
11500;SDS011;5807;51.606;7.624;2022-08-11T16:14:20;4.35;;;3.60;;
11500;SDS011;5807;51.606;7.624;2022-08-11T16:17:07;4.32;;;3.65;;
11500;SDS011;5807;51.606;7.624;2022-08-11T16:19:38;3.30;;;3.10;;
11500;SDS011;5807;51.606;7.624;2022-08-11T16:22:08;3.42;;;3.22;;
11500;SDS011;5807;51.606;7.624;2022-08-11T16:24:42;6.45;;;3.28;;
11500;SDS011;5807;51.606;7.624;2022-08-11T16:27:10;3.40;;;3.20;;
11500;SDS011;5807;51.606;7.624;2022-08-11T16:29:39;4.20;;;3.55;;
11500;SDS011;5807;51.606;7.624;2022-08-11T16:32:14;3.28;;;3.08;;
11500;SDS011;5807;51.606;7.624;2022-08-11T16:34:45;4.93;;;3.15;;
11500;SDS011;5807;51.606;7.624;2022-08-11T16:37:34;4.13;;;3.28;;
11500;SDS011;5807;51.606;7.624;2022-08-11T16:40:20;3.45;;;3.25;;
11500;SDS011;5807;51.606;7.624;2022-08-11T16:42:48;4.00;;;3.28;;
11500;SDS011;5807;51.606;7.624;2022-08-11T16:45:33;3.72;;;3.50;;
11500;SDS011;5807;51.606;7.624;2022-08-11T16:48:22;5.00;;;3.45;;
11500;SDS011;5807;51.606;7.624;2022-08-11T16:50:53;5.05;;;3.10;;
11500;SDS011;5807;51.606;7.624;2022-08-11T16:53:23;6.03;;;3.28;;
11500;SDS011;5807;51.606;7.624;2022-08-11T16:55:51;3.08;;;2.88;;
11500;SDS011;5807;51.606;7.624;2022-08-11T16:58:21;4.18;;;3.33;;
11500;SDS011;5807;51.606;7.624;2022-08-11T17:01:07;4.10;;;3.90;;
11500;SDS011;5807;51.606;7.624;2022-08-11T17:03:39;4.97;;;4.20;;
11500;SDS011;5807;51.606;7.624;2022-08-11T17:06:28;4.30;;;3.70;;
11500;SDS011;5807;51.606;7.624;2022-08-11T17:09:13;5.77;;;4.77;;
11500;SDS011;5807;51.606;7.624;2022-08-11T17:12:16;4.37;;;3.80;;
11500;SDS011;5807;51.606;7.624;2022-08-11T17:15:06;5.30;;;3.30;;
11500;SDS011;5807;51.606;7.624;2022-08-11T17:17:56;5.40;;;3.60;;
11500;SDS011;5807;51.606;7.624;2022-08-11T17:20:26;4.97;;;3.93;;
11500;SDS011;5807;51.606;7.624;2022-08-11T17:22:55;6.40;;;3.40;;
11500;SDS011;5807;51.606;7.624;2022-08-11T17:25:40;4.00;;;3.60;;
11500;SDS011;5807;51.606;7.624;2022-08-11T17:28:08;4.23;;;2.80;;
11500;SDS011;5807;51.606;7.624;2022-08-11T17:30:37;4.13;;;3.60;;
11500;SDS011;5807;51.606;7.624;2022-08-11T17:33:23;4.27;;;3.90;;
11500;SDS011;5807;51.606;7.624;2022-08-11T17:36:09;3.93;;;3.50;;
11500;SDS011;5807;51.606;7.624;2022-08-11T17:38:38;4.53;;;3.63;;
11500;SDS011;5807;51.606;7.624;2022-08-11T17:41:06;3.47;;;3.27;;
11500;SDS011;5807;51.606;7.624;2022-08-11T17:43:51;3.37;;;3.17;;
11500;SDS011;5807;51.606;7.624;2022-08-11T17:46:40;4.30;;;3.97;;
11500;SDS011;5807;51.606;7.624;2022-08-11T17:49:26;6.77;;;4.47;;
11500;SDS011;5807;51.606;7.624;2022-08-11T17:52:03;6.47;;;4.07;;
11500;SDS011;5807;51.606;7.624;2022-08-11T17:54:48;6.70;;;4.20;;